createdAt,value
2023-05-03T00:00:52.921Z,94033.16
2023-05-03T00:01:49.529Z,94023.75
2023-05-03T00:02:46.586Z,94018.97
2023-05-03T00:03:45.675Z,94016.72
2023-05-03T00:04:42.378Z,94025.50
2023-05-03T00:05:39.452Z,94023.28
2023-05-03T00:06:36.165Z,94017.59
2023-05-03T00:07:32.783Z,94022.59
2023-05-03T00:08:29.521Z,94028.00
2023-05-03T00:09:26.129Z,94028.34
2023-05-03T00:10:23.069Z,94025.69
2023-05-03T00:11:19.660Z,94041.63
2023-05-03T00:12:16.257Z,94042.91
2023-05-03T00:13:13.557Z,94044.13
2023-05-03T00:14:10.306Z,94044.25
2023-05-03T00:15:07.853Z,94044.16
2023-05-03T00:16:04.783Z,94047.63
2023-05-03T00:17:01.695Z,93999.13
2023-05-03T00:17:58.325Z,94024.63
2023-05-03T00:18:55.164Z,94029.22
2023-05-03T00:19:51.698Z,94015.81
2023-05-03T00:20:48.301Z,94018.50
2023-05-03T00:21:45.079Z,94008.97
2023-05-03T00:22:41.695Z,94023.13
2023-05-03T00:23:38.253Z,94026.63
2023-05-03T00:24:35.383Z,94022.94
2023-05-03T00:25:32.015Z,94033.03
2023-05-03T00:26:28.742Z,94031.97
2023-05-03T00:27:25.471Z,94032.38
2023-05-03T00:28:22.846Z,94034.84
2023-05-03T00:29:21.332Z,94033.78
2023-05-03T00:30:19.349Z,94032.22
2023-05-03T00:31:16.160Z,93918.72
2023-05-03T00:32:12.925Z,94033.41
2023-05-03T00:33:09.564Z,94034.69
2023-05-03T00:34:06.193Z,94034.28
2023-05-03T00:35:03.031Z,94028.44
2023-05-03T00:35:59.677Z,94026.22
2023-05-03T00:36:56.283Z,94029.69
2023-05-03T00:37:52.932Z,94032.78
2023-05-03T00:38:49.611Z,94010.72
2023-05-03T00:39:46.228Z,94041.91
2023-05-03T00:40:43.324Z,94043.47
2023-05-03T00:41:40.066Z,94047.38
2023-05-03T00:42:37.083Z,94046.78
2023-05-03T00:43:35.594Z,94044.66
2023-05-03T00:44:32.213Z,94048.28
2023-05-03T00:45:31.534Z,94004.38
2023-05-03T00:46:29.101Z,94049.88
2023-05-03T00:47:25.801Z,94033.38
2023-05-03T00:48:22.462Z,94051.72
2023-05-03T00:49:19.905Z,94007.63
2023-05-03T00:50:16.718Z,94030.81
2023-05-03T00:51:15.091Z,94055.69
2023-05-03T00:52:11.790Z,94051.59
2023-05-03T00:53:08.448Z,94044.13
2023-05-03T00:54:05.171Z,94013.94
2023-05-03T00:55:03.079Z,94025.16
2023-05-03T00:56:01.251Z,94016.34
2023-05-03T00:56:58.008Z,94034.06
2023-05-03T00:57:54.686Z,94057.16
2023-05-03T00:58:52.454Z,94050.91
2023-05-03T00:59:49.954Z,94051.94
2023-05-03T01:00:50.209Z,94046.22
2023-05-03T01:01:51.906Z,94051.25
2023-05-03T01:02:49.460Z,94043.03
2023-05-03T01:03:46.906Z,94053.19
2023-05-03T01:04:43.954Z,94036.00
2023-05-03T01:06:08.274Z,94043.47
2023-05-03T01:07:33.889Z,94016.38
2023-05-03T01:08:47.295Z,93977.81
2023-05-03T01:09:58.638Z,93959.66
2023-05-03T01:10:55.216Z,94025.81
2023-05-03T01:12:10.693Z,94027.59
2023-05-03T01:13:16.095Z,94037.16
2023-05-03T01:14:16.017Z,94041.91
2023-05-03T01:15:24.592Z,94034.50
2023-05-03T01:16:40.006Z,94041.47
2023-05-03T01:17:51.618Z,94045.50
2023-05-03T01:18:51.049Z,94035.03
2023-05-03T01:19:51.566Z,94027.38
2023-05-03T01:20:50.383Z,94030.72
2023-05-03T01:21:56.329Z,94026.66
2023-05-03T01:22:58.710Z,94025.69
2023-05-03T01:24:03.941Z,94023.38
2023-05-03T01:25:08.002Z,94026.91
2023-05-03T01:26:21.516Z,94032.16
2023-05-03T01:27:19.393Z,94028.47
2023-05-03T01:28:15.958Z,94025.56
2023-05-03T01:29:12.555Z,94025.72
2023-05-03T01:30:11.616Z,94031.69
2023-05-03T01:31:08.524Z,94029.16
2023-05-03T01:32:13.346Z,94023.28
2023-05-03T01:33:49.077Z,94023.75
2023-05-03T01:34:51.663Z,94015.59
2023-05-03T01:35:57.812Z,93998.16
2023-05-03T01:36:58.823Z,94002.19
2023-05-03T01:37:57.543Z,94013.84
2023-05-03T01:38:54.716Z,94006.53
2023-05-03T01:39:57.701Z,94014.47
2023-05-03T01:40:59.544Z,93978.03
2023-05-03T01:41:57.629Z,94012.81
2023-05-03T01:42:55.878Z,94016.38
2023-05-03T01:43:54.939Z,94018.66
2023-05-03T01:44:53.780Z,94021.16
2023-05-03T01:45:51.025Z,94034.53
2023-05-03T01:46:48.119Z,94028.84
2023-05-03T01:47:44.903Z,94022.63
2023-05-03T01:48:41.658Z,94019.88
2023-05-03T01:49:38.283Z,94020.75
2023-05-03T01:50:34.847Z,94024.44
2023-05-03T01:51:31.400Z,94020.78
2023-05-03T01:52:28.293Z,94023.78
2023-05-03T01:53:24.906Z,94005.47
2023-05-03T01:54:22.114Z,94015.88
2023-05-03T01:55:19.044Z,94012.56
2023-05-03T01:56:15.663Z,94008.56
2023-05-03T01:57:12.322Z,94014.31
2023-05-03T01:58:08.967Z,94012.25
2023-05-03T01:59:05.719Z,93999.47
2023-05-03T02:00:02.741Z,94000.34
2023-05-03T02:00:59.672Z,94002.78
2023-05-03T02:01:56.413Z,94015.84
2023-05-03T02:02:53.172Z,93965.16
2023-05-03T02:03:49.785Z,94009.78
2023-05-03T02:04:46.451Z,94000.09
2023-05-03T02:05:43.166Z,94006.31
2023-05-03T02:06:39.808Z,94000.13
2023-05-03T02:07:36.513Z,93998.47
2023-05-03T02:08:33.116Z,93998.69
2023-05-03T02:09:29.670Z,93998.16
2023-05-03T02:10:26.484Z,94002.25
2023-05-03T02:11:23.278Z,93997.25
2023-05-03T02:12:19.961Z,94001.91
2023-05-03T02:13:16.787Z,94005.44
2023-05-03T02:14:13.365Z,94002.69
2023-05-03T02:15:11.240Z,94000.69
2023-05-03T02:16:07.896Z,94005.34
2023-05-03T02:17:04.698Z,93998.59
2023-05-03T02:18:02.588Z,93998.03
2023-05-03T02:18:59.877Z,93994.16
2023-05-03T02:19:56.539Z,94002.47
2023-05-03T02:20:53.149Z,93999.16
2023-05-03T02:21:49.811Z,93997.38
2023-05-03T02:22:46.665Z,93997.50
2023-05-03T02:23:43.250Z,93998.03
2023-05-03T02:24:40.141Z,94000.13
2023-05-03T02:25:36.872Z,93783.41
2023-05-03T02:26:33.631Z,93992.25
2023-05-03T02:27:31.592Z,93991.47
2023-05-03T02:28:28.260Z,93986.94
2023-05-03T02:29:24.885Z,93991.69
2023-05-03T02:30:21.524Z,93967.25
2023-05-03T02:31:18.377Z,93988.38
2023-05-03T02:32:14.975Z,93961.75
2023-05-03T02:33:11.682Z,93990.72
2023-05-03T02:34:09.018Z,94003.47
2023-05-03T02:35:06.626Z,93995.72
2023-05-03T02:36:03.310Z,94008.91
2023-05-03T02:37:00.277Z,94002.13
2023-05-03T02:37:57.530Z,94008.72
2023-05-03T02:38:54.300Z,94008.81
2023-05-03T02:39:51.109Z,94005.34
2023-05-03T02:40:47.711Z,93992.81
2023-05-03T02:41:44.390Z,94003.25
2023-05-03T02:42:41.175Z,94005.34
2023-05-03T02:43:38.038Z,94004.47
2023-05-03T02:44:34.672Z,93998.38
2023-05-03T02:45:31.288Z,94006.59
2023-05-03T02:46:27.941Z,94002.69
2023-05-03T02:47:24.617Z,94006.47
2023-05-03T02:48:21.288Z,94008.66
2023-05-03T02:49:17.906Z,94001.44
2023-05-03T02:50:14.588Z,93992.69
2023-05-03T02:51:11.166Z,94003.22
2023-05-03T02:52:08.211Z,93998.91
2023-05-03T02:53:04.846Z,93997.69
2023-05-03T02:54:01.421Z,93998.69
2023-05-03T02:54:58.013Z,93984.50
2023-05-03T02:55:54.868Z,93986.94
2023-05-03T02:56:51.548Z,93998.13
2023-05-03T02:57:48.163Z,93993.81
2023-05-03T02:58:44.814Z,94007.78
2023-05-03T02:59:41.551Z,94012.34
2023-05-03T03:00:38.134Z,93999.94
2023-05-03T03:01:34.775Z,94022.34
2023-05-03T03:02:31.437Z,93996.81
2023-05-03T03:03:28.201Z,94025.53
2023-05-03T03:04:25.861Z,94030.22
2023-05-03T03:05:22.454Z,94019.88
2023-05-03T03:06:19.156Z,94029.03
2023-05-03T03:07:15.884Z,94023.47
2023-05-03T03:08:12.849Z,94022.25
2023-05-03T03:09:09.517Z,94029.56
2023-05-03T03:10:07.585Z,94017.25
2023-05-03T03:11:05.587Z,94019.69
2023-05-03T03:12:03.555Z,93997.13
2023-05-03T03:13:00.375Z,94005.13
2023-05-03T03:13:56.933Z,94015.13
2023-05-03T03:14:53.532Z,94011.66
2023-05-03T03:15:50.051Z,94008.56
2023-05-03T03:16:46.798Z,93962.41
2023-05-03T03:17:43.465Z,94017.19
2023-05-03T03:18:40.092Z,93999.47
2023-05-03T03:19:36.704Z,94017.44
2023-05-03T03:20:33.632Z,94012.66
2023-05-03T03:21:31.572Z,94011.00
2023-05-03T03:22:28.134Z,94008.56
2023-05-03T03:23:24.760Z,94010.69
2023-05-03T03:24:21.712Z,94018.13
2023-05-03T03:25:18.497Z,94013.34
2023-05-03T03:26:15.163Z,93946.31
2023-05-03T03:27:11.877Z,94014.13
2023-05-03T03:28:08.667Z,94018.34
2023-05-03T03:29:05.356Z,94007.09
2023-05-03T03:30:02.258Z,94010.78
2023-05-03T03:30:59.267Z,94011.31
2023-05-03T03:31:56.047Z,94018.13
2023-05-03T03:32:53.039Z,94018.88
2023-05-03T03:33:49.849Z,94025.41
2023-05-03T03:34:46.468Z,94027.84
2023-05-03T03:35:43.048Z,94020.19
2023-05-03T03:36:39.771Z,93936.88
2023-05-03T03:37:36.515Z,94007.91
2023-05-03T03:38:33.175Z,94029.94
2023-05-03T03:39:29.931Z,94009.22
2023-05-03T03:40:26.563Z,94019.00
2023-05-03T03:41:23.268Z,94020.13
2023-05-03T03:42:20.988Z,94024.75
2023-05-03T03:43:17.658Z,94020.31
2023-05-03T03:44:14.366Z,94029.72
2023-05-03T03:45:11.317Z,94033.47
2023-05-03T03:46:08.091Z,94021.66
2023-05-03T03:47:04.777Z,94030.00
2023-05-03T03:48:01.736Z,94038.78
2023-05-03T03:48:58.417Z,94007.09
2023-05-03T03:49:54.940Z,94031.75
2023-05-03T03:50:51.760Z,94036.28
2023-05-03T03:51:48.399Z,94032.56
2023-05-03T03:52:45.039Z,94038.31
2023-05-03T03:53:41.992Z,94039.41
2023-05-03T03:54:38.552Z,94036.56
2023-05-03T03:55:35.186Z,94040.09
2023-05-03T03:56:31.746Z,94047.78
2023-05-03T03:57:30.384Z,94036.88
2023-05-03T03:58:27.044Z,94037.34
2023-05-03T03:59:23.769Z,94046.75
2023-05-03T04:00:20.378Z,94044.31
2023-05-03T04:01:16.973Z,94042.75
2023-05-03T04:02:13.654Z,94043.09
2023-05-03T04:03:10.573Z,94042.91
2023-05-03T04:04:07.284Z,94045.41
2023-05-03T04:05:04.563Z,93828.50
2023-05-03T04:06:01.306Z,94044.22
2023-05-03T04:06:57.931Z,94048.22
2023-05-03T04:07:54.539Z,94055.09
2023-05-03T04:08:51.178Z,94050.13
2023-05-03T04:09:47.828Z,94032.78
2023-05-03T04:10:44.753Z,94059.44
2023-05-03T04:11:41.342Z,94060.66
2023-05-03T04:12:38.206Z,94068.78
2023-05-03T04:13:34.735Z,94060.66
2023-05-03T04:14:31.329Z,94058.34
2023-05-03T04:15:27.957Z,94021.69
2023-05-03T04:16:24.596Z,94057.66
2023-05-03T04:17:21.727Z,94059.66
2023-05-03T04:18:18.286Z,94054.44
2023-05-03T04:19:14.898Z,94063.44
2023-05-03T04:20:13.791Z,94070.44
2023-05-03T04:21:10.442Z,94067.41
2023-05-03T04:22:07.234Z,94075.88
2023-05-03T04:23:03.842Z,94075.44
2023-05-03T04:24:02.562Z,94070.97
2023-05-03T04:25:01.279Z,94074.97
2023-05-03T04:25:58.063Z,94078.63
2023-05-03T04:26:54.644Z,94085.97
2023-05-03T04:27:51.684Z,94079.09
2023-05-03T04:28:48.477Z,94076.75
2023-05-03T04:29:45.130Z,94088.06
2023-05-03T04:30:47.022Z,94090.97
2023-05-03T04:31:43.614Z,94081.63
2023-05-03T04:32:40.745Z,94088.88
2023-05-03T04:33:37.544Z,94089.19
2023-05-03T04:34:34.151Z,94088.06
2023-05-03T04:35:31.063Z,94042.47
2023-05-03T04:36:29.896Z,94087.28
2023-05-03T04:37:27.540Z,94094.50
2023-05-03T04:38:24.179Z,94092.06
2023-05-03T04:39:22.127Z,94093.19
2023-05-03T04:40:19.819Z,94087.66
2023-05-03T04:41:17.412Z,94090.09
2023-05-03T04:42:15.402Z,94090.22
2023-05-03T04:43:12.961Z,94093.75
2023-05-03T04:44:09.634Z,94039.00
2023-05-03T04:45:07.500Z,94093.88
2023-05-03T04:46:04.831Z,94096.06
2023-05-03T04:47:02.786Z,94100.63
2023-05-03T04:47:59.454Z,94096.09
2023-05-03T04:48:56.491Z,94102.53
2023-05-03T04:49:53.095Z,94067.97
2023-05-03T04:50:49.710Z,94102.41
2023-05-03T04:51:46.356Z,94105.81
2023-05-03T04:52:42.911Z,94104.72
2023-05-03T04:53:40.355Z,94111.56
2023-05-03T04:54:37.015Z,94113.50
2023-05-03T04:55:34.078Z,94113.88
2023-05-03T04:56:31.555Z,94106.31
2023-05-03T04:57:28.241Z,94121.50
2023-05-03T04:58:24.952Z,94114.38
2023-05-03T04:59:21.489Z,94064.78
2023-05-03T05:00:18.256Z,94121.06
2023-05-03T05:01:14.936Z,94121.50
2023-05-03T05:02:11.710Z,94116.25
2023-05-03T05:03:09.084Z,94122.81
2023-05-03T05:04:06.096Z,94132.81
2023-05-03T05:05:03.445Z,94134.69
2023-05-03T05:06:00.222Z,94126.31
2023-05-03T05:06:56.875Z,94138.31
2023-05-03T05:07:53.736Z,94129.91
2023-05-03T05:08:50.940Z,94126.38
2023-05-03T05:09:47.587Z,94131.97
2023-05-03T05:10:44.212Z,94084.19
2023-05-03T05:11:40.904Z,94141.50
2023-05-03T05:12:37.572Z,94131.28
2023-05-03T05:13:34.142Z,94141.75
2023-05-03T05:14:31.634Z,94135.94
2023-05-03T05:15:28.265Z,94110.72
2023-05-03T05:16:25.048Z,94131.56
2023-05-03T05:17:21.929Z,94125.53
2023-05-03T05:18:18.683Z,94137.78
2023-05-03T05:19:15.478Z,94133.81
2023-05-03T05:20:16.830Z,94138.31
2023-05-03T05:21:14.590Z,94151.38
2023-05-03T05:22:11.222Z,94098.97
2023-05-03T05:23:07.879Z,94145.69
2023-05-03T05:24:05.118Z,94137.91
2023-05-03T05:25:02.051Z,94141.94
2023-05-03T05:26:00.626Z,94141.63
2023-05-03T05:26:57.364Z,94089.28
2023-05-03T05:27:53.963Z,94148.16
2023-05-03T05:28:50.880Z,94137.81
2023-05-03T05:29:47.445Z,94138.88
2023-05-03T05:30:44.032Z,94143.69
2023-05-03T05:31:40.674Z,94080.78
2023-05-03T05:32:37.452Z,94035.38
2023-05-03T05:33:34.282Z,94140.97
2023-05-03T05:34:39.156Z,94130.91
2023-05-03T05:35:40.590Z,94139.00
2023-05-03T05:36:37.328Z,94138.97
2023-05-03T05:37:33.896Z,94138.59
2023-05-03T05:38:30.510Z,94137.38
2023-05-03T05:39:27.196Z,94135.22
2023-05-03T05:40:23.791Z,94139.66
2023-05-03T05:41:21.174Z,94138.53
2023-05-03T05:42:17.851Z,94131.28
2023-05-03T05:43:14.553Z,94137.22
2023-05-03T05:44:11.925Z,94137.13
2023-05-03T05:45:09.053Z,94129.97
2023-05-03T05:46:05.652Z,94136.47
2023-05-03T05:47:02.378Z,94128.94
2023-05-03T05:47:59.084Z,94129.34
2023-05-03T05:48:55.739Z,94138.00
2023-05-03T05:49:52.281Z,94128.34
2023-05-03T05:50:48.981Z,94128.84
2023-05-03T05:51:46.080Z,94122.22
2023-05-03T05:52:42.826Z,94129.84
2023-05-03T05:53:39.387Z,94129.41
2023-05-03T05:54:36.528Z,94130.41
2023-05-03T05:55:33.109Z,94125.63
2023-05-03T05:56:29.772Z,94130.94
2023-05-03T05:57:26.477Z,94126.47
2023-05-03T05:58:23.102Z,94126.88
2023-05-03T05:59:20.113Z,94100.41
2023-05-03T06:00:17.568Z,94129.44
2023-05-03T06:01:14.247Z,94091.88
2023-05-03T06:02:16.789Z,94112.22
2023-05-03T06:03:13.622Z,94129.53
2023-05-03T06:04:10.994Z,94133.31
2023-05-03T06:05:08.416Z,94138.22
2023-05-03T06:06:05.111Z,94124.78
2023-05-03T06:07:01.710Z,94127.66
2023-05-03T06:07:58.312Z,94131.88
2023-05-03T06:08:55.016Z,94132.56
2023-05-03T06:09:51.642Z,94134.66
2023-05-03T06:10:48.308Z,94128.88
2023-05-03T06:11:44.989Z,94131.31
2023-05-03T06:12:41.713Z,94131.41
2023-05-03T06:13:40.748Z,94131.66
2023-05-03T06:14:37.349Z,94125.09
2023-05-03T06:15:33.911Z,94120.53
2023-05-03T06:16:30.917Z,94126.31
2023-05-03T06:17:28.325Z,94124.47
2023-05-03T06:18:25.002Z,94135.28
2023-05-03T06:19:21.744Z,94123.66
2023-05-03T06:20:18.534Z,94127.44
2023-05-03T06:21:15.635Z,94127.03
2023-05-03T06:22:12.230Z,94126.09
2023-05-03T06:23:08.886Z,94131.50
2023-05-03T06:24:05.893Z,94127.81
2023-05-03T06:25:02.581Z,94126.22
2023-05-03T06:25:59.246Z,94129.34
2023-05-03T06:26:55.827Z,94127.13
2023-05-03T06:27:52.489Z,94105.97
2023-05-03T06:28:50.507Z,94130.09
2023-05-03T06:29:48.088Z,94126.34
2023-05-03T06:30:52.483Z,94126.19
2023-05-03T06:31:49.188Z,94127.91
2023-05-03T06:32:47.879Z,94126.75
2023-05-03T06:33:44.692Z,94126.34
2023-05-03T06:34:41.263Z,94132.88
2023-05-03T06:35:37.867Z,94123.31
2023-05-03T06:36:34.480Z,94126.09
2023-05-03T06:37:31.223Z,94122.09
2023-05-03T06:38:28.582Z,94120.09
2023-05-03T06:39:25.354Z,94118.13
2023-05-03T06:40:24.874Z,94124.28
2023-05-03T06:41:21.401Z,94099.78
2023-05-03T06:42:18.035Z,94120.91
2023-05-03T06:43:14.709Z,94127.66
2023-05-03T06:44:11.575Z,94121.63
2023-05-03T06:45:08.766Z,94129.13
2023-05-03T06:46:05.428Z,94127.66
2023-05-03T06:47:03.240Z,94132.59
2023-05-03T06:47:59.978Z,94125.97
2023-05-03T06:48:57.706Z,94067.91
2023-05-03T06:49:54.373Z,94128.59
2023-05-03T06:50:50.947Z,94116.78
2023-05-03T06:51:47.682Z,94128.09
2023-05-03T06:52:44.383Z,94129.91
2023-05-03T06:53:41.188Z,94129.72
2023-05-03T06:54:37.860Z,94119.72
2023-05-03T06:55:34.522Z,94122.44
2023-05-03T06:56:31.069Z,94122.44
2023-05-03T06:57:28.838Z,94122.91
2023-05-03T06:58:25.799Z,94106.63
2023-05-03T06:59:22.398Z,94111.19
2023-05-03T07:00:19.649Z,94113.91
2023-05-03T07:01:17.559Z,94105.75
2023-05-03T07:02:14.248Z,94111.28
2023-05-03T07:03:10.861Z,94113.44
2023-05-03T07:04:07.895Z,94099.63
2023-05-03T07:05:05.264Z,94107.09
2023-05-03T07:06:02.197Z,94105.19
2023-05-03T07:06:58.993Z,94108.03
2023-05-03T07:07:55.654Z,94109.63
2023-05-03T07:08:53.211Z,94101.41
2023-05-03T07:09:49.962Z,94131.50
2023-05-03T07:10:46.504Z,94101.53
2023-05-03T07:11:49.410Z,94102.63
2023-05-03T07:12:45.989Z,94098.72
2023-05-03T07:13:42.642Z,94098.31
2023-05-03T07:14:40.542Z,94099.00
2023-05-03T07:15:37.268Z,94086.94
2023-05-03T07:16:33.833Z,94088.41
2023-05-03T07:17:30.648Z,94078.97
2023-05-03T07:18:27.407Z,94042.72
2023-05-03T07:19:24.097Z,94075.97
2023-05-03T07:20:20.720Z,94070.47
2023-05-03T07:21:17.366Z,94063.59
2023-05-03T07:22:14.446Z,94079.91
2023-05-03T07:23:11.062Z,94074.97
2023-05-03T07:24:08.727Z,94020.56
2023-05-03T07:25:05.863Z,94081.75
2023-05-03T07:26:02.485Z,94089.84
2023-05-03T07:26:59.379Z,94087.47
2023-05-03T07:27:56.036Z,94087.78
2023-05-03T07:28:53.238Z,94090.13
2023-05-03T07:29:49.853Z,94046.22
2023-05-03T07:30:46.960Z,94096.53
2023-05-03T07:31:44.923Z,94101.94
2023-05-03T07:32:41.598Z,94111.19
2023-05-03T07:33:38.432Z,94103.34
2023-05-03T07:34:35.214Z,94122.19
2023-05-03T07:35:33.093Z,94073.88
2023-05-03T07:36:29.723Z,94116.94
2023-05-03T07:37:27.896Z,94120.50
2023-05-03T07:38:24.623Z,94120.72
2023-05-03T07:39:21.166Z,94120.00
2023-05-03T07:40:17.983Z,94118.75
2023-05-03T07:41:14.667Z,94115.69
2023-05-03T07:42:11.326Z,94113.13
2023-05-03T07:43:10.334Z,94121.94
2023-05-03T07:44:07.834Z,94115.22
2023-05-03T07:45:05.001Z,94111.72
2023-05-03T07:46:01.859Z,94106.63
2023-05-03T07:46:58.502Z,94107.41
2023-05-03T07:47:56.954Z,94091.41
2023-05-03T07:48:53.594Z,94111.94
2023-05-03T07:49:50.888Z,94114.28
2023-05-03T07:50:47.763Z,94117.28
2023-05-03T07:51:44.416Z,94117.13
2023-05-03T07:52:42.408Z,94114.56
2023-05-03T07:53:40.433Z,94111.72
2023-05-03T07:54:37.316Z,94114.78
2023-05-03T07:55:36.531Z,94102.25
2023-05-03T07:56:33.299Z,94059.13
2023-05-03T07:57:29.912Z,94107.16
2023-05-03T07:58:38.829Z,94109.81
2023-05-03T07:59:37.011Z,94111.13
2023-05-03T08:00:33.631Z,94107.69
2023-05-03T08:01:30.532Z,94103.41
2023-05-03T08:02:27.368Z,94092.00
2023-05-03T08:03:24.466Z,94094.22
2023-05-03T08:04:21.632Z,94087.00
2023-05-03T08:05:18.777Z,94075.75
2023-05-03T08:06:15.494Z,94035.47
2023-05-03T08:07:12.267Z,94063.97
2023-05-03T08:08:09.332Z,94074.81
2023-05-03T08:09:06.047Z,94079.28
2023-05-03T08:10:04.609Z,94080.50
2023-05-03T08:11:01.654Z,94071.94
2023-05-03T08:11:58.300Z,94095.38
2023-05-03T08:12:54.874Z,94081.91
2023-05-03T08:13:51.441Z,94090.78
2023-05-03T08:14:48.039Z,94095.72
2023-05-03T08:15:46.075Z,94064.38
2023-05-03T08:16:42.893Z,94109.31
2023-05-03T08:17:44.307Z,94103.88
2023-05-03T08:18:41.068Z,94100.47
2023-05-03T08:19:37.675Z,94110.22
2023-05-03T08:20:36.949Z,94112.97
2023-05-03T08:21:35.697Z,94117.06
2023-05-03T08:22:32.553Z,94106.25
2023-05-03T08:23:29.213Z,94113.56
2023-05-03T08:24:27.020Z,94088.53
2023-05-03T08:25:25.728Z,94099.63
2023-05-03T08:26:22.536Z,94103.03
2023-05-03T08:27:19.461Z,94071.56
2023-05-03T08:28:16.544Z,94095.91
2023-05-03T08:29:13.228Z,94084.22
2023-05-03T08:30:10.733Z,94096.41
2023-05-03T08:31:07.912Z,94101.84
2023-05-03T08:32:05.209Z,94099.59
2023-05-03T08:33:02.466Z,94098.13
2023-05-03T08:33:59.201Z,94096.34
2023-05-03T08:34:56.704Z,94055.38
2023-05-03T08:35:53.286Z,94102.97
2023-05-03T08:36:49.914Z,94103.31
2023-05-03T08:37:46.744Z,94093.97
2023-05-03T08:38:43.370Z,94107.81
2023-05-03T08:39:40.233Z,94102.78
2023-05-03T08:40:39.573Z,94108.47
2023-05-03T08:41:36.126Z,94107.09
2023-05-03T08:42:33.764Z,94077.81
2023-05-03T08:43:33.870Z,94108.13
2023-05-03T08:44:31.668Z,94112.78
2023-05-03T08:45:28.287Z,94095.78
2023-05-03T08:46:28.748Z,94073.44
2023-05-03T08:47:27.485Z,94091.94
2023-05-03T08:48:24.165Z,94061.03
2023-05-03T08:49:21.648Z,94055.72
2023-05-03T08:50:18.405Z,94099.44
2023-05-03T08:51:17.150Z,94083.16
2023-05-03T08:52:16.149Z,94103.91
2023-05-03T08:53:12.924Z,94103.63
2023-05-03T08:54:09.563Z,94099.44
2023-05-03T08:55:07.651Z,94094.19
2023-05-03T08:56:12.491Z,94095.63
2023-05-03T08:57:14.991Z,94107.56
2023-05-03T08:58:13.113Z,94099.25
2023-05-03T08:59:14.189Z,94103.06
2023-05-03T09:00:11.405Z,94100.66
2023-05-03T09:01:09.862Z,94101.53
2023-05-03T09:02:09.794Z,94094.69
2023-05-03T09:03:07.610Z,94100.38
2023-05-03T09:04:04.706Z,94087.94
2023-05-03T09:05:02.672Z,94073.16
2023-05-03T09:06:02.485Z,94092.91
2023-05-03T09:07:09.898Z,94103.25
2023-05-03T09:08:09.440Z,94102.13
2023-05-03T09:09:07.762Z,94104.09
2023-05-03T09:10:22.664Z,94089.31
2023-05-03T09:11:28.067Z,94093.19
2023-05-03T09:12:35.947Z,94094.25
2023-05-03T09:13:32.603Z,94104.06
2023-05-03T09:14:29.247Z,94091.69
2023-05-03T09:15:26.854Z,94095.72
2023-05-03T09:16:27.210Z,94093.81
2023-05-03T09:17:23.940Z,94094.06
2023-05-03T09:18:21.147Z,94093.81
2023-05-03T09:19:17.810Z,94096.13
2023-05-03T09:20:14.432Z,94094.25
2023-05-03T09:21:19.396Z,94089.84
2023-05-03T09:22:16.283Z,94096.75
2023-05-03T09:23:13.035Z,94084.63
2023-05-03T09:24:15.983Z,94077.13
2023-05-03T09:25:12.728Z,94085.09
2023-05-03T09:26:09.391Z,94081.75
2023-05-03T09:27:19.439Z,94080.78
2023-05-03T09:28:17.503Z,94085.81
2023-05-03T09:29:34.485Z,94044.63
2023-05-03T09:30:31.481Z,94080.13
2023-05-03T09:31:34.009Z,94062.41
2023-05-03T09:32:32.949Z,94066.41
2023-05-03T09:33:29.995Z,94064.50
2023-05-03T09:34:26.660Z,94063.38
2023-05-03T09:35:23.424Z,94063.59
2023-05-03T09:36:20.068Z,94065.75
2023-05-03T09:37:16.835Z,94063.66
2023-05-03T09:38:27.196Z,94052.06
2023-05-03T09:39:24.477Z,94037.25
2023-05-03T09:40:21.048Z,94063.88
2023-05-03T09:41:30.878Z,94047.41
2023-05-03T09:42:28.975Z,94058.22
2023-05-03T09:43:25.746Z,94056.78
2023-05-03T09:44:42.664Z,94071.94
2023-05-03T09:45:39.398Z,94063.50
2023-05-03T09:46:37.516Z,94057.75
2023-05-03T09:47:50.226Z,94057.75
2023-05-03T09:48:46.933Z,94053.28
2023-05-03T09:49:43.915Z,94048.53
2023-05-03T09:50:42.757Z,94043.28
2023-05-03T09:51:41.705Z,93999.50
2023-05-03T09:52:40.425Z,94041.91
2023-05-03T09:53:38.654Z,94043.06
2023-05-03T09:54:35.742Z,94020.56
2023-05-03T09:55:37.009Z,94040.44
2023-05-03T09:56:33.802Z,94037.41
2023-05-03T09:57:30.593Z,94039.72
2023-05-03T09:58:28.907Z,94033.06
2023-05-03T09:59:25.693Z,94034.25
2023-05-03T10:00:22.426Z,94036.03
2023-05-03T10:01:19.743Z,94037.84
2023-05-03T10:02:17.731Z,94026.97
2023-05-03T10:03:23.129Z,94034.88
2023-05-03T10:04:22.147Z,94037.06
2023-05-03T10:05:21.527Z,94026.78
2023-05-03T10:06:30.871Z,94034.81
2023-05-03T10:07:29.284Z,94046.00
2023-05-03T10:08:45.537Z,94034.56
2023-05-03T10:09:47.297Z,94006.69
2023-05-03T10:10:46.119Z,94038.75
2023-05-03T10:11:59.059Z,94035.78
2023-05-03T10:12:55.869Z,94046.94
2023-05-03T10:13:52.790Z,94039.16
2023-05-03T10:14:52.744Z,94047.50
2023-05-03T10:15:58.945Z,94038.03
2023-05-03T10:17:06.370Z,94038.13
2023-05-03T10:18:08.182Z,94031.56
2023-05-03T10:19:14.379Z,94015.31
2023-05-03T10:20:17.086Z,94020.13
2023-05-03T10:21:21.853Z,94024.59
2023-05-03T10:22:18.563Z,93998.75
2023-05-03T10:23:15.377Z,94024.09
2023-05-03T10:24:14.092Z,94022.69
2023-05-03T10:25:10.882Z,94020.09
2023-05-03T10:26:07.510Z,94025.84
2023-05-03T10:27:08.597Z,94018.16
2023-05-03T10:28:07.385Z,94025.78
2023-05-03T10:29:07.336Z,94022.34
2023-05-03T10:30:04.494Z,94014.03
2023-05-03T10:31:03.080Z,94014.03
2023-05-03T10:31:59.883Z,94023.84
2023-05-03T10:32:57.098Z,94022.78
2023-05-03T10:33:53.716Z,94015.84
2023-05-03T10:34:56.924Z,94016.63
2023-05-03T10:35:54.612Z,94014.69
2023-05-03T10:36:55.175Z,94013.50
2023-05-03T10:37:51.959Z,93989.19
2023-05-03T10:38:48.735Z,94009.63
2023-05-03T10:39:45.850Z,94012.34
2023-05-03T10:40:43.749Z,94012.66
2023-05-03T10:41:40.513Z,94000.00
2023-05-03T10:42:38.750Z,94004.22
2023-05-03T10:43:35.746Z,94001.47
2023-05-03T10:44:40.465Z,94005.34
2023-05-03T10:45:38.902Z,94002.88
2023-05-03T10:46:36.152Z,94003.69
2023-05-03T10:47:33.063Z,93997.66
2023-05-03T10:48:30.580Z,93995.16
2023-05-03T10:49:27.272Z,93991.47
2023-05-03T10:50:26.957Z,93969.53
2023-05-03T10:51:30.689Z,93989.59
2023-05-03T10:52:36.103Z,93991.16
2023-05-03T10:53:37.092Z,93993.41
2023-05-03T10:54:33.759Z,93990.78
2023-05-03T10:55:30.545Z,93996.50
2023-05-03T10:56:27.172Z,93992.78
2023-05-03T10:57:29.217Z,93984.25
2023-05-03T10:58:25.958Z,93996.81
2023-05-03T10:59:24.227Z,93988.72
2023-05-03T11:00:28.082Z,93977.66
2023-05-03T11:01:26.968Z,94001.13
2023-05-03T11:02:31.886Z,94006.06
2023-05-03T11:03:43.550Z,94006.59
2023-05-03T11:04:45.731Z,93999.63
2023-05-03T11:05:42.840Z,94011.91
2023-05-03T11:06:41.444Z,94006.50
2023-05-03T11:07:38.168Z,93920.66
2023-05-03T11:08:38.059Z,94011.06
2023-05-03T11:09:34.889Z,93950.00
2023-05-03T11:10:31.529Z,94008.69
2023-05-03T11:11:28.219Z,94009.19
2023-05-03T11:12:25.090Z,94001.84
2023-05-03T11:13:21.718Z,94003.97
2023-05-03T11:14:18.404Z,94006.81
2023-05-03T11:15:15.043Z,94002.25
2023-05-03T11:16:12.116Z,94010.34
2023-05-03T11:17:09.330Z,94013.09
2023-05-03T11:18:11.271Z,94001.47
2023-05-03T11:19:08.422Z,93989.44
2023-05-03T11:20:11.149Z,94005.03
2023-05-03T11:21:07.836Z,94005.06
2023-05-03T11:22:04.672Z,93989.59
2023-05-03T11:23:03.982Z,94001.16